sensor_id;sensor_type;location;lat;lon;timestamp;pressure;altitude;pressure_sealevel;temperature;humidity
67980;BME280;54760;47.490;19.030;2023-03-24T00:00:07;99857.66;;;14.32;51.14
67980;BME280;54760;47.490;19.030;2023-03-24T00:02:37;99857.34;;;14.09;51.81
67980;BME280;54760;47.490;19.030;2023-03-24T00:05:07;99857.91;;;14.04;52.26
67980;BME280;54760;47.490;19.030;2023-03-24T00:07:33;99855.87;;;13.95;52.33
67980;BME280;54760;47.490;19.030;2023-03-24T00:09:58;99858.00;;;13.78;52.81
67980;BME280;54760;47.490;19.030;2023-03-24T00:12:25;99854.47;;;13.91;52.54
67980;BME280;54760;47.490;19.030;2023-03-24T00:14:50;99857.66;;;13.89;52.50
67980;BME280;54760;47.490;19.030;2023-03-24T00:17:19;99846.69;;;13.76;52.82
67980;BME280;54760;47.490;19.030;2023-03-24T00:19:50;99845.50;;;13.77;52.91
67980;BME280;54760;47.490;19.030;2023-03-24T00:22:15;99848.69;;;13.98;52.18
67980;BME280;54760;47.490;19.030;2023-03-24T00:24:41;99851.19;;;14.05;52.08
67980;BME280;54760;47.490;19.030;2023-03-24T00:27:11;99850.31;;;13.73;52.91
67980;BME280;54760;47.490;19.030;2023-03-24T00:29:38;99841.66;;;13.97;52.47
67980;BME280;54760;47.490;19.030;2023-03-24T00:32:04;99832.87;;;13.67;53.37
67980;BME280;54760;47.490;19.030;2023-03-24T00:34:30;99838.69;;;13.69;53.24
67980;BME280;54760;47.490;19.030;2023-03-24T00:36:56;99835.34;;;13.87;52.70
67980;BME280;54760;47.490;19.030;2023-03-24T00:39:21;99829.84;;;13.74;52.96
67980;BME280;54760;47.490;19.030;2023-03-24T00:41:47;99820.81;;;13.86;52.61
67980;BME280;54760;47.490;19.030;2023-03-24T00:44:16;99824.06;;;13.72;53.00
67980;BME280;54760;47.490;19.030;2023-03-24T00:46:48;99824.63;;;13.67;53.24
67980;BME280;54760;47.490;19.030;2023-03-24T00:49:29;99827.69;;;13.69;53.13
67980;BME280;54760;47.490;19.030;2023-03-24T00:52:15;99824.81;;;13.95;52.39
67980;BME280;54760;47.490;19.030;2023-03-24T00:54:42;99812.28;;;13.72;53.02
67980;BME280;54760;47.490;19.030;2023-03-24T00:57:10;99804.75;;;13.51;53.48
67980;BME280;54760;47.490;19.030;2023-03-24T00:59:37;99805.59;;;13.60;53.34
67980;BME280;54760;47.490;19.030;2023-03-24T01:02:09;99798.91;;;13.61;53.19
67980;BME280;54760;47.490;19.030;2023-03-24T01:04:39;99797.31;;;13.73;52.80
67980;BME280;54760;47.490;19.030;2023-03-24T01:07:08;99800.81;;;13.73;52.78
67980;BME280;54760;47.490;19.030;2023-03-24T01:09:36;99788.94;;;13.76;52.65
67980;BME280;54760;47.490;19.030;2023-03-24T01:12:03;99796.53;;;13.72;52.89
67980;BME280;54760;47.490;19.030;2023-03-24T01:14:30;99798.00;;;13.64;53.15
67980;BME280;54760;47.490;19.030;2023-03-24T01:16:55;99791.09;;;13.60;53.15
67980;BME280;54760;47.490;19.030;2023-03-24T01:19:21;99781.19;;;13.62;53.39
67980;BME280;54760;47.490;19.030;2023-03-24T01:21:47;99782.03;;;13.37;53.97
67980;BME280;54760;47.490;19.030;2023-03-24T01:24:15;99775.69;;;13.28;54.45
67980;BME280;54760;47.490;19.030;2023-03-24T01:26:42;99774.31;;;13.45;53.87
67980;BME280;54760;47.490;19.030;2023-03-24T01:29:08;99785.22;;;13.70;53.08
67980;BME280;54760;47.490;19.030;2023-03-24T01:31:34;99780.37;;;13.40;53.91
67980;BME280;54760;47.490;19.030;2023-03-24T01:34:00;99781.19;;;13.28;54.32
67980;BME280;54760;47.490;19.030;2023-03-24T01:36:25;99778.66;;;13.33;54.16
67980;BME280;54760;47.490;19.030;2023-03-24T01:38:51;99773.44;;;13.48;53.83
67980;BME280;54760;47.490;19.030;2023-03-24T01:41:16;99769.00;;;13.29;54.32
67980;BME280;54760;47.490;19.030;2023-03-24T01:43:42;99765.50;;;13.03;55.23
67980;BME280;54760;47.490;19.030;2023-03-24T01:46:18;99762.78;;;13.37;54.25
67980;BME280;54760;47.490;19.030;2023-03-24T01:48:52;99765.06;;;13.52;53.79
67980;BME280;54760;47.490;19.030;2023-03-24T01:51:25;99763.50;;;13.16;54.53
67980;BME280;54760;47.490;19.030;2023-03-24T01:54:00;99758.56;;;13.24;54.49
67980;BME280;54760;47.490;19.030;2023-03-24T01:56:30;99759.88;;;13.07;55.09
67980;BME280;54760;47.490;19.030;2023-03-24T01:58:59;99762.06;;;13.24;54.64
67980;BME280;54760;47.490;19.030;2023-03-24T02:01:26;99762.25;;;13.64;53.60
67980;BME280;54760;47.490;19.030;2023-03-24T02:03:56;99759.13;;;13.53;53.72
67980;BME280;54760;47.490;19.030;2023-03-24T02:06:23;99756.03;;;13.51;53.70
67980;BME280;54760;47.490;19.030;2023-03-24T02:08:54;99757.03;;;12.97;55.32
67980;BME280;54760;47.490;19.030;2023-03-24T02:11:21;99755.13;;;13.54;53.66
67980;BME280;54760;47.490;19.030;2023-03-24T02:13:47;99751.81;;;13.59;53.41
67980;BME280;54760;47.490;19.030;2023-03-24T02:32:46;99754.72;;;12.96;55.63
67980;BME280;54760;47.490;19.030;2023-03-24T02:46:30;99758.84;;;13.38;54.65
67980;BME280;54760;47.490;19.030;2023-03-24T02:51:56;99757.44;;;13.34;54.81
67980;BME280;54760;47.490;19.030;2023-03-24T02:57:03;99747.09;;;13.25;55.04
67980;BME280;54760;47.490;19.030;2023-03-24T02:59:35;99733.97;;;12.95;55.64
67980;BME280;54760;47.490;19.030;2023-03-24T03:02:07;99733.22;;;12.94;55.56
67980;BME280;54760;47.490;19.030;2023-03-24T03:04:41;99729.53;;;13.23;54.85
67980;BME280;54760;47.490;19.030;2023-03-24T03:07:17;99724.41;;;13.12;55.01
67980;BME280;54760;47.490;19.030;2023-03-24T03:09:56;99731.09;;;12.98;54.80
67980;BME280;54760;47.490;19.030;2023-03-24T03:12:26;99732.66;;;12.99;55.07
67980;BME280;54760;47.490;19.030;2023-03-24T03:14:59;99726.56;;;12.70;55.47
67980;BME280;54760;47.490;19.030;2023-03-24T03:17:34;99724.44;;;12.62;55.62
67980;BME280;54760;47.490;19.030;2023-03-24T03:20:11;99722.78;;;12.77;55.23
67980;BME280;54760;47.490;19.030;2023-03-24T03:23:00;99731.06;;;12.64;55.98
67980;BME280;54760;47.490;19.030;2023-03-24T03:25:32;99729.84;;;12.65;55.70
67980;BME280;54760;47.490;19.030;2023-03-24T03:28:02;99734.41;;;12.93;55.25
67980;BME280;54760;47.490;19.030;2023-03-24T03:33:46;99720.94;;;12.74;55.93
67980;BME280;54760;47.490;19.030;2023-03-24T03:36:22;99736.22;;;12.37;57.31
67980;BME280;54760;47.490;19.030;2023-03-24T03:39:08;99726.47;;;12.95;55.65
67980;BME280;54760;47.490;19.030;2023-03-24T03:41:36;99728.91;;;12.93;55.77
67980;BME280;54760;47.490;19.030;2023-03-24T03:44:02;99731.97;;;12.95;55.62
67980;BME280;54760;47.490;19.030;2023-03-24T03:46:28;99731.88;;;12.99;55.64
67980;BME280;54760;47.490;19.030;2023-03-24T03:48:53;99727.16;;;12.99;55.56
67980;BME280;54760;47.490;19.030;2023-03-24T03:51:19;99718.56;;;12.97;55.60
67980;BME280;54760;47.490;19.030;2023-03-24T03:53:50;99714.00;;;12.82;55.95
67980;BME280;54760;47.490;19.030;2023-03-24T03:56:18;99719.56;;;12.91;55.74
67980;BME280;54760;47.490;19.030;2023-03-24T03:58:45;99716.09;;;12.78;55.96
67980;BME280;54760;47.490;19.030;2023-03-24T04:01:16;99712.25;;;12.75;56.26
67980;BME280;54760;47.490;19.030;2023-03-24T04:23:19;99708.09;;;12.33;57.47
67980;BME280;54760;47.490;19.030;2023-03-24T04:28:45;99709.19;;;12.23;58.02
67980;BME280;54760;47.490;19.030;2023-03-24T04:33:53;99713.38;;;12.40;57.58
67980;BME280;54760;47.490;19.030;2023-03-24T04:38:57;99718.87;;;12.40;57.62
67980;BME280;54760;47.490;19.030;2023-03-24T04:41:28;99715.03;;;12.50;57.30
67980;BME280;54760;47.490;19.030;2023-03-24T04:43:56;99711.06;;;12.38;57.39
67980;BME280;54760;47.490;19.030;2023-03-24T04:46:23;99715.34;;;12.27;57.78
67980;BME280;54760;47.490;19.030;2023-03-24T04:48:49;99711.63;;;12.21;58.07
67980;BME280;54760;47.490;19.030;2023-03-24T04:51:18;99716.88;;;12.28;57.52
67980;BME280;54760;47.490;19.030;2023-03-24T04:53:45;99714.91;;;12.15;57.85
67980;BME280;54760;47.490;19.030;2023-03-24T04:58:42;99721.94;;;12.17;58.26
67980;BME280;54760;47.490;19.030;2023-03-24T05:01:07;99720.09;;;12.39;57.58
67980;BME280;54760;47.490;19.030;2023-03-24T05:03:33;99715.78;;;12.38;57.39
67980;BME280;54760;47.490;19.030;2023-03-24T05:06:02;99718.66;;;12.22;58.09
67980;BME280;54760;47.490;19.030;2023-03-24T05:08:30;99719.87;;;12.46;57.42
67980;BME280;54760;47.490;19.030;2023-03-24T05:10:56;99726.66;;;12.54;56.97
67980;BME280;54760;47.490;19.030;2023-03-24T05:13:22;99726.13;;;12.59;56.95
67980;BME280;54760;47.490;19.030;2023-03-24T05:15:47;99719.72;;;12.62;57.02
67980;BME280;54760;47.490;19.030;2023-03-24T05:18:13;99730.81;;;12.71;56.51
67980;BME280;54760;47.490;19.030;2023-03-24T05:20:38;99736.00;;;12.56;56.96
67980;BME280;54760;47.490;19.030;2023-03-24T05:23:04;99737.62;;;12.79;56.61
67980;BME280;54760;47.490;19.030;2023-03-24T05:25:29;99726.94;;;12.81;55.97
67980;BME280;54760;47.490;19.030;2023-03-24T05:27:55;99732.66;;;12.87;56.19
67980;BME280;54760;47.490;19.030;2023-03-24T05:30:21;99725.97;;;12.88;56.28
67980;BME280;54760;47.490;19.030;2023-03-24T05:32:46;99724.28;;;12.90;55.75
67980;BME280;54760;47.490;19.030;2023-03-24T05:35:12;99734.41;;;12.93;56.01
67980;BME280;54760;47.490;19.030;2023-03-24T05:37:38;99736.69;;;13.08;55.14
67980;BME280;54760;47.490;19.030;2023-03-24T05:40:03;99739.22;;;13.15;55.07
67980;BME280;54760;47.490;19.030;2023-03-24T05:42:29;99744.50;;;13.09;55.42
67980;BME280;54760;47.490;19.030;2023-03-24T05:44:54;99739.41;;;13.33;55.17
67980;BME280;54760;47.490;19.030;2023-03-24T05:47:20;99734.28;;;13.44;54.84
67980;BME280;54760;47.490;19.030;2023-03-24T05:49:45;99736.44;;;13.49;54.15
67980;BME280;54760;47.490;19.030;2023-03-24T05:52:12;99745.09;;;13.60;53.92
67980;BME280;54760;47.490;19.030;2023-03-24T05:54:39;99738.75;;;13.51;53.47
67980;BME280;54760;47.490;19.030;2023-03-24T05:57:05;99736.97;;;13.78;53.17
67980;BME280;54760;47.490;19.030;2023-03-24T05:59:34;99743.09;;;14.04;51.80
67980;BME280;54760;47.490;19.030;2023-03-24T06:02:00;99745.00;;;14.16;51.06
67980;BME280;54760;47.490;19.030;2023-03-24T06:04:25;99746.88;;;15.17;49.30
67980;BME280;54760;47.490;19.030;2023-03-24T06:06:55;99744.88;;;16.42;45.26
67980;BME280;54760;47.490;19.030;2023-03-24T06:09:24;99728.56;;;17.33;42.50
67980;BME280;54760;47.490;19.030;2023-03-24T06:11:49;99725.22;;;18.27;39.75
67980;BME280;54760;47.490;19.030;2023-03-24T06:14:15;99728.88;;;18.53;39.05
67980;BME280;54760;47.490;19.030;2023-03-24T06:16:40;99729.25;;;19.36;36.95
67980;BME280;54760;47.490;19.030;2023-03-24T06:19:07;99726.69;;;20.04;35.80
67980;BME280;54760;47.490;19.030;2023-03-24T06:21:33;99732.09;;;19.87;35.71
67980;BME280;54760;47.490;19.030;2023-03-24T06:23:59;99738.00;;;19.09;36.61
67980;BME280;54760;47.490;19.030;2023-03-24T06:26:25;99736.72;;;18.69;37.67
67980;BME280;54760;47.490;19.030;2023-03-24T06:28:51;99743.19;;;18.16;38.51
67980;BME280;54760;47.490;19.030;2023-03-24T06:31:18;99746.84;;;18.08;38.67
67980;BME280;54760;47.490;19.030;2023-03-24T06:33:46;99748.53;;;17.91;39.38
67980;BME280;54760;47.490;19.030;2023-03-24T06:36:12;99748.94;;;17.98;39.03
67980;BME280;54760;47.490;19.030;2023-03-24T06:38:38;99741.84;;;18.56;37.95
67980;BME280;54760;47.490;19.030;2023-03-24T06:41:05;99733.72;;;19.48;36.85
67980;BME280;54760;47.490;19.030;2023-03-24T06:43:31;99742.47;;;20.44;34.53
67980;BME280;54760;47.490;19.030;2023-03-24T06:45:56;99741.44;;;21.32;33.20
67980;BME280;54760;47.490;19.030;2023-03-24T06:48:23;99732.13;;;21.46;32.92
67980;BME280;54760;47.490;19.030;2023-03-24T06:50:50;99741.44;;;21.27;33.00
67980;BME280;54760;47.490;19.030;2023-03-24T06:53:16;99729.47;;;22.24;31.32
67980;BME280;54760;47.490;19.030;2023-03-24T06:55:41;99722.28;;;23.01;30.13
67980;BME280;54760;47.490;19.030;2023-03-24T06:58:07;99719.16;;;24.39;27.81
67980;BME280;54760;47.490;19.030;2023-03-24T07:00:32;99726.56;;;24.36;27.54
67980;BME280;54760;47.490;19.030;2023-03-24T07:02:58;99713.59;;;25.49;26.28
67980;BME280;54760;47.490;19.030;2023-03-24T07:05:26;99721.25;;;26.63;24.44
67980;BME280;54760;47.490;19.030;2023-03-24T07:07:51;99712.66;;;26.87;24.08
67980;BME280;54760;47.490;19.030;2023-03-24T07:10:17;99705.59;;;26.94;24.21
67980;BME280;54760;47.490;19.030;2023-03-24T07:12:43;99710.16;;;26.97;23.73
67980;BME280;54760;47.490;19.030;2023-03-24T07:15:09;99719.47;;;25.08;26.22
67980;BME280;54760;47.490;19.030;2023-03-24T07:17:35;99710.06;;;28.17;22.46
67980;BME280;54760;47.490;19.030;2023-03-24T07:20:01;99716.28;;;24.98;26.02
67980;BME280;54760;47.490;19.030;2023-03-24T07:22:29;99709.50;;;25.87;25.36
67980;BME280;54760;47.490;19.030;2023-03-24T07:24:55;99699.34;;;28.93;21.72
67980;BME280;54760;47.490;19.030;2023-03-24T07:27:22;99708.78;;;24.34;26.92
67980;BME280;54760;47.490;19.030;2023-03-24T07:29:47;99709.53;;;24.88;26.12
67980;BME280;54760;47.490;19.030;2023-03-24T07:32:13;99712.88;;;21.37;31.69
67980;BME280;54760;47.490;19.030;2023-03-24T07:34:38;99702.06;;;24.96;26.16
67980;BME280;54760;47.490;19.030;2023-03-24T07:37:04;99703.63;;;24.43;27.67
67980;BME280;54760;47.490;19.030;2023-03-24T07:39:29;99698.63;;;23.08;29.50
67980;BME280;54760;47.490;19.030;2023-03-24T07:41:55;99698.09;;;24.02;27.68
67980;BME280;54760;47.490;19.030;2023-03-24T07:44:21;99690.16;;;26.16;25.56
67980;BME280;54760;47.490;19.030;2023-03-24T07:46:46;99680.81;;;29.49;21.28
67980;BME280;54760;47.490;19.030;2023-03-24T07:49:12;99695.44;;;30.59;19.53
67980;BME280;54760;47.490;19.030;2023-03-24T07:51:39;99691.84;;;30.13;20.26
67980;BME280;54760;47.490;19.030;2023-03-24T07:54:04;99684.62;;;26.55;24.11
67980;BME280;54760;47.490;19.030;2023-03-24T07:56:30;99684.16;;;31.22;19.35
67980;BME280;54760;47.490;19.030;2023-03-24T07:58:56;99680.56;;;32.95;17.61
67980;BME280;54760;47.490;19.030;2023-03-24T08:01:21;99682.56;;;31.76;18.36
67980;BME280;54760;47.490;19.030;2023-03-24T08:03:47;99683.28;;;31.44;18.87
67980;BME280;54760;47.490;19.030;2023-03-24T08:06:13;99693.03;;;33.43;16.76
67980;BME280;54760;47.490;19.030;2023-03-24T08:08:38;99680.56;;;33.29;16.62
67980;BME280;54760;47.490;19.030;2023-03-24T08:11:04;99681.13;;;32.17;17.52
67980;BME280;54760;47.490;19.030;2023-03-24T08:13:30;99676.62;;;32.39;17.50
67980;BME280;54760;47.490;19.030;2023-03-24T08:15:55;99670.41;;;32.92;17.08
67980;BME280;54760;47.490;19.030;2023-03-24T08:18:22;99670.72;;;33.84;16.55
67980;BME280;54760;47.490;19.030;2023-03-24T08:20:48;99665.44;;;34.72;15.58
67980;BME280;54760;47.490;19.030;2023-03-24T08:23:14;99663.97;;;34.16;15.87
67980;BME280;54760;47.490;19.030;2023-03-24T08:25:42;99662.38;;;32.46;16.93
67980;BME280;54760;47.490;19.030;2023-03-24T08:28:07;99661.72;;;30.31;19.42
67980;BME280;54760;47.490;19.030;2023-03-24T08:30:33;99661.03;;;28.33;21.51
67980;BME280;54760;47.490;19.030;2023-03-24T08:33:00;99650.37;;;29.55;20.55
67980;BME280;54760;47.490;19.030;2023-03-24T08:35:33;99644.09;;;31.98;17.94
67980;BME280;54760;47.490;19.030;2023-03-24T08:38:03;99645.75;;;31.44;18.35
67980;BME280;54760;47.490;19.030;2023-03-24T08:40:29;99644.78;;;31.16;18.65
67980;BME280;54760;47.490;19.030;2023-03-24T08:42:58;99639.75;;;32.63;17.36
67980;BME280;54760;47.490;19.030;2023-03-24T08:45:27;99637.66;;;33.42;16.64
67980;BME280;54760;47.490;19.030;2023-03-24T08:47:57;99639.59;;;32.79;17.29
67980;BME280;54760;47.490;19.030;2023-03-24T08:50:26;99643.47;;;26.18;24.09
67980;BME280;54760;47.490;19.030;2023-03-24T08:52:53;99625.63;;;28.46;21.79
67980;BME280;54760;47.490;19.030;2023-03-24T08:55:20;99625.09;;;27.98;22.36
67980;BME280;54760;47.490;19.030;2023-03-24T08:57:46;99641.53;;;27.52;22.57
67980;BME280;54760;47.490;19.030;2023-03-24T09:00:13;99636.28;;;28.39;22.04
67980;BME280;54760;47.490;19.030;2023-03-24T09:02:48;99625.78;;;29.86;20.32
67980;BME280;54760;47.490;19.030;2023-03-24T09:05:14;99621.59;;;31.18;19.41
67980;BME280;54760;47.490;19.030;2023-03-24T09:07:40;99625.66;;;31.64;18.67
67980;BME280;54760;47.490;19.030;2023-03-24T09:10:07;99628.16;;;31.60;19.03
67980;BME280;54760;47.490;19.030;2023-03-24T09:12:34;99622.19;;;32.40;18.00
67980;BME280;54760;47.490;19.030;2023-03-24T09:15:00;99628.03;;;31.11;18.97
67980;BME280;54760;47.490;19.030;2023-03-24T09:17:25;99623.34;;;30.28;20.07
67980;BME280;54760;47.490;19.030;2023-03-24T09:19:51;99630.97;;;28.57;21.93
67980;BME280;54760;47.490;19.030;2023-03-24T09:22:16;99624.34;;;28.47;21.83
67980;BME280;54760;47.490;19.030;2023-03-24T09:24:42;99623.53;;;26.22;24.70
67980;BME280;54760;47.490;19.030;2023-03-24T09:27:08;99622.81;;;27.21;24.16
67980;BME280;54760;47.490;19.030;2023-03-24T09:29:34;99619.41;;;27.02;24.35
67980;BME280;54760;47.490;19.030;2023-03-24T09:32:00;99614.91;;;26.33;24.79
67980;BME280;54760;47.490;19.030;2023-03-24T09:34:25;99608.66;;;28.30;22.74
67980;BME280;54760;47.490;19.030;2023-03-24T09:36:51;99605.25;;;31.01;20.07
67980;BME280;54760;47.490;19.030;2023-03-24T09:39:16;99603.66;;;32.05;18.58
67980;BME280;54760;47.490;19.030;2023-03-24T09:41:43;99599.84;;;33.67;17.33
67980;BME280;54760;47.490;19.030;2023-03-24T09:44:33;99585.47;;;35.26;15.85
67980;BME280;54760;47.490;19.030;2023-03-24T09:47:35;99585.41;;;34.76;16.37
67980;BME280;54760;47.490;19.030;2023-03-24T09:50:17;99586.44;;;34.42;16.67
67980;BME280;54760;47.490;19.030;2023-03-24T09:52:48;99571.84;;;35.15;16.21
67980;BME280;54760;47.490;19.030;2023-03-24T09:55:20;99580.25;;;33.07;17.76
67980;BME280;54760;47.490;19.030;2023-03-24T09:57:48;99570.22;;;32.62;18.25
67980;BME280;54760;47.490;19.030;2023-03-24T10:00:19;99573.81;;;32.63;17.96
67980;BME280;54760;47.490;19.030;2023-03-24T10:02:45;99560.13;;;32.52;18.20
67980;BME280;54760;47.490;19.030;2023-03-24T10:05:16;99561.44;;;33.29;17.54
67980;BME280;54760;47.490;19.030;2023-03-24T10:10:26;99564.47;;;30.09;20.92
67980;BME280;54760;47.490;19.030;2023-03-24T10:13:00;99562.06;;;29.90;21.26
67980;BME280;54760;47.490;19.030;2023-03-24T10:15:39;99560.88;;;27.89;23.87
67980;BME280;54760;47.490;19.030;2023-03-24T10:21:26;99554.22;;;26.04;26.06
67980;BME280;54760;47.490;19.030;2023-03-24T10:24:09;99549.34;;;25.46;27.17
67980;BME280;54760;47.490;19.030;2023-03-24T10:26:48;99539.72;;;25.10;27.82
67980;BME280;54760;47.490;19.030;2023-03-24T10:29:28;99538.59;;;27.29;24.91
67980;BME280;54760;47.490;19.030;2023-03-24T10:32:13;99524.72;;;29.08;22.99
67980;BME280;54760;47.490;19.030;2023-03-24T10:34:41;99520.06;;;30.02;21.28
67980;BME280;54760;47.490;19.030;2023-03-24T10:37:10;99522.16;;;29.63;21.99
67980;BME280;54760;47.490;19.030;2023-03-24T10:39:36;99500.41;;;31.89;19.43
67980;BME280;54760;47.490;19.030;2023-03-24T10:42:02;99504.47;;;33.08;17.79
67980;BME280;54760;47.490;19.030;2023-03-24T10:44:28;99508.72;;;32.73;17.73
67980;BME280;54760;47.490;19.030;2023-03-24T10:46:57;99505.41;;;33.57;16.94
67980;BME280;54760;47.490;19.030;2023-03-24T10:49:23;99493.81;;;33.72;16.76
67980;BME280;54760;47.490;19.030;2023-03-24T10:51:58;99488.47;;;34.14;16.50
67980;BME280;54760;47.490;19.030;2023-03-24T10:54:27;99494.00;;;33.10;17.15
67980;BME280;54760;47.490;19.030;2023-03-24T11:01:56;99481.19;;;35.71;15.12
67980;BME280;54760;47.490;19.030;2023-03-24T11:04:23;99470.22;;;35.15;15.60
67980;BME280;54760;47.490;19.030;2023-03-24T11:07:15;99460.72;;;35.84;15.14
67980;BME280;54760;47.490;19.030;2023-03-24T11:09:45;99484.31;;;35.44;15.40
67980;BME280;54760;47.490;19.030;2023-03-24T11:12:21;99487.91;;;36.18;15.05
67980;BME280;54760;47.490;19.030;2023-03-24T11:14:47;99481.72;;;36.22;14.93
67980;BME280;54760;47.490;19.030;2023-03-24T11:17:14;99444.69;;;36.55;14.51
67980;BME280;54760;47.490;19.030;2023-03-24T11:19:50;99434.06;;;34.37;16.14
67980;BME280;54760;47.490;19.030;2023-03-24T11:22:16;99419.59;;;35.14;15.38
67980;BME280;54760;47.490;19.030;2023-03-24T11:24:42;99429.59;;;34.34;16.29
67980;BME280;54760;47.490;19.030;2023-03-24T11:27:12;99428.72;;;35.53;15.39
67980;BME280;54760;47.490;19.030;2023-03-24T11:29:41;99430.19;;;35.54;15.49
67980;BME280;54760;47.490;19.030;2023-03-24T11:32:26;99431.66;;;34.43;16.00
67980;BME280;54760;47.490;19.030;2023-03-24T11:35:05;99444.97;;;33.92;16.16
67980;BME280;54760;47.490;19.030;2023-03-24T11:37:33;99435.88;;;35.33;15.17
67980;BME280;54760;47.490;19.030;2023-03-24T11:40:21;99425.06;;;35.62;15.07
67980;BME280;54760;47.490;19.030;2023-03-24T11:42:56;99431.94;;;34.47;15.56
67980;BME280;54760;47.490;19.030;2023-03-24T11:48:26;99431.59;;;33.37;16.80
67980;BME280;54760;47.490;19.030;2023-03-24T11:50:55;99425.41;;;34.06;16.08
67980;BME280;54760;47.490;19.030;2023-03-24T11:53:46;99409.72;;;34.34;16.12
67980;BME280;54760;47.490;19.030;2023-03-24T11:56:19;99416.00;;;33.94;16.36
67980;BME280;54760;47.490;19.030;2023-03-24T11:59:03;99415.44;;;33.21;16.91
67980;BME280;54760;47.490;19.030;2023-03-24T12:01:48;99405.16;;;32.89;17.17
67980;BME280;54760;47.490;19.030;2023-03-24T12:04:55;99405.53;;;33.77;16.48
67980;BME280;54760;47.490;19.030;2023-03-24T12:07:40;99409.56;;;32.73;16.95
67980;BME280;54760;47.490;19.030;2023-03-24T12:12:53;99381.59;;;31.05;18.54
67980;BME280;54760;47.490;19.030;2023-03-24T12:15:36;99377.00;;;31.17;18.47
67980;BME280;54760;47.490;19.030;2023-03-24T12:18:20;99378.22;;;32.44;17.63
67980;BME280;54760;47.490;19.030;2023-03-24T12:20:57;99382.41;;;31.39;17.64
67980;BME280;54760;47.490;19.030;2023-03-24T12:23:25;99388.50;;;30.22;18.65
67980;BME280;54760;47.490;19.030;2023-03-24T12:39:14;99348.97;;;28.15;21.62
67980;BME280;54760;47.490;19.030;2023-03-24T12:44:26;99345.63;;;27.80;22.04
67980;BME280;54760;47.490;19.030;2023-03-24T12:52:49;99343.88;;;27.41;22.48
67980;BME280;54760;47.490;19.030;2023-03-24T12:55:28;99326.56;;;27.30;22.46
67980;BME280;54760;47.490;19.030;2023-03-24T12:58:16;99324.84;;;26.57;23.49
67980;BME280;54760;47.490;19.030;2023-03-24T13:03:41;99320.38;;;26.07;24.32
67980;BME280;54760;47.490;19.030;2023-03-24T13:07:04;99330.47;;;25.76;24.78
67980;BME280;54760;47.490;19.030;2023-03-24T13:09:12;99318.53;;;25.75;24.84
67980;BME280;54760;47.490;19.030;2023-03-24T13:11:49;99321.66;;;25.59;25.07
67980;BME280;54760;47.490;19.030;2023-03-24T13:14:28;99311.22;;;25.59;24.71
67980;BME280;54760;47.490;19.030;2023-03-24T13:17:02;99306.91;;;25.45;24.72
67980;BME280;54760;47.490;19.030;2023-03-24T13:19:30;99301.72;;;25.10;25.38
67980;BME280;54760;47.490;19.030;2023-03-24T13:21:57;99310.62;;;24.63;25.90
67980;BME280;54760;47.490;19.030;2023-03-24T13:24:23;99293.63;;;24.48;26.09
67980;BME280;54760;47.490;19.030;2023-03-24T13:37:38;99295.75;;;26.67;23.54
67980;BME280;54760;47.490;19.030;2023-03-24T13:40:25;99295.56;;;26.24;24.09
67980;BME280;54760;47.490;19.030;2023-03-24T13:43:25;99281.41;;;26.16;24.08
67980;BME280;54760;47.490;19.030;2023-03-24T13:46:00;99278.13;;;25.31;25.34
67980;BME280;54760;47.490;19.030;2023-03-24T13:48:50;99281.44;;;25.69;24.86
67980;BME280;54760;47.490;19.030;2023-03-24T13:53:56;99291.53;;;26.53;23.63
67980;BME280;54760;47.490;19.030;2023-03-24T13:56:25;99270.28;;;26.65;23.71
67980;BME280;54760;47.490;19.030;2023-03-24T14:01:37;99266.19;;;27.23;22.90
67980;BME280;54760;47.490;19.030;2023-03-24T14:06:46;99273.75;;;26.79;23.36
67980;BME280;54760;47.490;19.030;2023-03-24T14:09:16;99266.19;;;26.66;23.56
67980;BME280;54760;47.490;19.030;2023-03-24T14:11:49;99267.94;;;26.77;23.47
67980;BME280;54760;47.490;19.030;2023-03-24T14:15:01;99264.41;;;26.35;23.95
67980;BME280;54760;47.490;19.030;2023-03-24T14:17:21;99262.78;;;26.06;24.52
67980;BME280;54760;47.490;19.030;2023-03-24T14:22:24;99244.91;;;25.62;25.23
67980;BME280;54760;47.490;19.030;2023-03-24T14:25:05;99253.03;;;25.86;24.94
67980;BME280;54760;47.490;19.030;2023-03-24T14:27:47;99246.53;;;25.57;25.28
67980;BME280;54760;47.490;19.030;2023-03-24T14:30:27;99239.59;;;25.84;24.83
67980;BME280;54760;47.490;19.030;2023-03-24T14:33:02;99246.09;;;25.66;25.01
67980;BME280;54760;47.490;19.030;2023-03-24T14:40:40;99248.16;;;24.29;27.17
67980;BME280;54760;47.490;19.030;2023-03-24T14:43:25;99240.75;;;24.12;27.54
67980;BME280;54760;47.490;19.030;2023-03-24T14:46:03;99245.22;;;24.02;27.62
67980;BME280;54760;47.490;19.030;2023-03-24T14:51:05;99237.91;;;23.81;28.17
67980;BME280;54760;47.490;19.030;2023-03-24T14:53:34;99241.63;;;23.89;28.03
67980;BME280;54760;47.490;19.030;2023-03-24T14:56:01;99238.81;;;24.07;27.79
67980;BME280;54760;47.490;19.030;2023-03-24T14:58:35;99236.53;;;24.06;27.96
67980;BME280;54760;47.490;19.030;2023-03-24T15:01:04;99229.97;;;24.03;27.94
67980;BME280;54760;47.490;19.030;2023-03-24T15:03:38;99233.75;;;23.87;27.92
67980;BME280;54760;47.490;19.030;2023-03-24T15:06:17;99225.53;;;23.76;28.33
67980;BME280;54760;47.490;19.030;2023-03-24T15:08:51;99225.53;;;23.57;28.58
67980;BME280;54760;47.490;19.030;2023-03-24T15:11:29;99227.06;;;23.58;28.50
67980;BME280;54760;47.490;19.030;2023-03-24T15:13:56;99227.47;;;23.44;28.66
67980;BME280;54760;47.490;19.030;2023-03-24T15:16:30;99224.75;;;23.19;28.92
67980;BME280;54760;47.490;19.030;2023-03-24T15:19:08;99216.84;;;22.99;29.15
67980;BME280;54760;47.490;19.030;2023-03-24T15:21:38;99216.84;;;22.99;29.28